Time;durP1;ratioP1;P1;durP2;ratioP2;P2;SDS_P1;SDS_P2;PMS_P1;PMS_P2;Temp;Humidity;BMP_temperature;BMP_pressure;BME280_temperature;BME280_humidity;BME280_pressure;Samples;Min_cycle;Max_cycle;Signal;HPM_P1;HPM_P2
2023/07/08 00:02:13;;;;;;;5.78;4.30;;;17.00;99.90;;;;;;4989200;28;20414;-92
2023/07/08 00:04:40;;;;;;;7.47;4.75;;;16.70;99.90;;;;;;4974577;28;20469;-91
2023/07/08 00:07:15;;;;;;;5.70;4.75;;;16.70;99.90;;;;;;4971115;28;20781;-92
2023/07/08 00:09:41;;;;;;;5.78;4.32;;;16.60;99.90;;;;;;4974266;28;20418;-92
2023/07/08 00:12:13;;;;;;;5.30;4.25;;;16.60;99.90;;;;;;4989264;28;20410;-92
2023/07/08 00:14:39;;;;;;;5.15;4.05;;;16.60;99.90;;;;;;4972416;28;20426;-93
2023/07/08 00:17:11;;;;;;;7.78;4.47;;;16.60;99.90;;;;;;4988693;28;20476;-93
2023/07/08 00:19:37;;;;;;;6.50;4.50;;;16.50;99.90;;;;;;4971577;28;20418;-92
2023/07/08 00:22:11;;;;;;;5.50;4.25;;;16.50;99.90;;;;;;4989554;28;20438;-92
2023/07/08 00:24:36;;;;;;;7.15;4.55;;;16.50;99.90;;;;;;4972453;28;20444;-91
2023/07/08 00:27:02;;;;;;;6.80;4.70;;;16.40;99.90;;;;;;4990110;28;20414;-93
2023/07/08 00:29:28;;;;;;;6.85;4.78;;;16.40;99.90;;;;;;4988884;28;20443;-91
2023/07/08 00:31:54;;;;;;;6.22;4.30;;;16.40;99.90;;;;;;4972941;28;20507;-93
2023/07/08 00:34:20;;;;;;;6.60;5.10;;;16.40;99.90;;;;;;4973557;28;20425;-93
2023/07/08 00:36:45;;;;;;;6.57;4.78;;;16.40;99.90;;;;;;4987978;28;20453;-92
2023/07/08 00:39:14;;;;;;;8.77;4.60;;;16.30;99.90;;;;;;4973442;28;20410;-93
2023/07/08 00:41:42;;;;;;;6.00;4.68;;;16.30;99.90;;;;;;4987966;28;21041;-92
2023/07/08 00:44:12;;;;;;;6.43;4.73;;;16.30;99.90;;;;;;4973845;28;20440;-93
2023/07/08 00:47:05;;;;;;;6.90;5.10;;;16.30;99.90;;;;;;4972358;28;20899;-94
2023/07/08 00:50:06;;;;;;;6.75;4.80;;;16.20;99.90;;;;;;4972279;28;20497;-91
2023/07/08 00:52:34;;;;;;;5.85;4.60;;;16.20;99.90;;;;;;4899624;29;20443;-92
2023/07/08 00:55:05;;;;;;;5.65;4.68;;;16.30;99.90;;;;;;4956804;28;20780;-92
2023/07/08 00:57:35;;;;;;;7.20;4.85;;;16.20;99.90;;;;;;4973142;28;20919;-94
2023/07/08 01:00:11;;;;;;;7.07;5.05;;;16.10;99.90;;;;;;4972633;28;20497;-94
2023/07/08 01:02:48;;;;;;;7.30;5.20;;;16.20;99.90;;;;;;4971640;28;20518;-94
2023/07/08 01:05:21;;;;;;;7.10;4.72;;;16.10;99.90;;;;;;4972937;28;20506;-94
2023/07/08 01:07:53;;;;;;;7.07;4.90;;;16.10;99.90;;;;;;4971359;28;20411;-92
2023/07/08 01:10:28;;;;;;;7.65;4.88;;;16.10;99.90;;;;;;4973505;28;20502;-91
2023/07/08 01:12:59;;;;;;;7.40;5.05;;;16.10;99.90;;;;;;4972489;28;20421;-94
2023/07/08 01:15:32;;;;;;;7.07;5.20;;;16.10;99.90;;;;;;4971609;28;20413;-93
2023/07/08 01:17:59;;;;;;;6.40;4.80;;;16.10;99.90;;;;;;4988629;28;20414;-93
2023/07/08 01:20:24;;;;;;;7.18;5.25;;;16.00;99.90;;;;;;4971080;28;20411;-92
2023/07/08 01:22:50;;;;;;;7.07;4.80;;;16.10;99.90;;;;;;4989331;28;20465;-93
2023/07/08 01:25:16;;;;;;;6.22;4.85;;;16.00;99.90;;;;;;4987324;28;20410;-90
2023/07/08 01:27:46;;;;;;;6.85;4.53;;;16.20;99.90;;;;;;4988789;28;20427;-92
2023/07/08 01:30:15;;;;;;;6.10;4.60;;;16.00;99.90;;;;;;4971945;28;20410;-92
2023/07/08 01:32:48;;;;;;;6.17;4.53;;;15.90;99.90;;;;;;4971878;28;20434;-92
2023/07/08 01:35:14;;;;;;;6.00;4.38;;;16.00;99.90;;;;;;4972552;28;20418;-92
2023/07/08 01:37:44;;;;;;;6.53;4.30;;;15.90;99.90;;;;;;4987172;28;20410;-92
2023/07/08 01:40:19;;;;;;;5.50;4.40;;;15.90;99.90;;;;;;4973105;28;20771;-91
2023/07/08 01:42:45;;;;;;;7.03;4.65;;;16.00;99.90;;;;;;4971118;28;20434;-92
2023/07/08 01:45:14;;;;;;;5.57;4.30;;;15.90;99.90;;;;;;4971975;28;20541;-91
2023/07/08 01:47:42;;;;;;;5.30;4.60;;;15.90;99.90;;;;;;4972184;28;20411;-92
2023/07/08 01:50:10;;;;;;;6.93;4.70;;;15.90;99.90;;;;;;4959666;28;20457;-92
2023/07/08 01:52:37;;;;;;;6.90;4.50;;;15.90;99.90;;;;;;4969097;28;20403;-90
2023/07/08 01:55:04;;;;;;;5.35;4.60;;;15.90;99.90;;;;;;4970464;28;20418;-93
2023/07/08 01:57:30;;;;;;;6.93;4.93;;;15.90;99.90;;;;;;4988723;28;20457;-93
2023/07/08 01:59:55;;;;;;;6.70;4.88;;;15.90;99.90;;;;;;4971204;28;20418;-92
2023/07/08 02:02:24;;;;;;;7.53;4.80;;;15.80;99.90;;;;;;4971840;28;20446;-92
2023/07/08 02:04:50;;;;;;;6.03;5.18;;;15.80;99.90;;;;;;4971567;28;21272;-93
2023/07/08 02:07:16;;;;;;;7.35;5.68;;;15.80;99.90;;;;;;4986865;28;20411;-91
2023/07/08 02:09:42;;;;;;;6.73;5.17;;;15.80;99.90;;;;;;4988240;28;20494;-91
2023/07/08 02:12:09;;;;;;;7.95;5.55;;;15.80;99.90;;;;;;4970823;28;20919;-91
2023/07/08 02:14:34;;;;;;;7.15;5.10;;;15.70;99.90;;;;;;4988235;28;20854;-92
2023/07/08 02:17:00;;;;;;;6.45;5.13;;;15.70;99.90;;;;;;4970267;28;20506;-90
2023/07/08 02:19:27;;;;;;;8.27;4.93;;;15.70;99.90;;;;;;4972509;28;20426;-91
2023/07/08 02:21:53;;;;;;;7.68;4.93;;;15.70;99.90;;;;;;4970480;28;20430;-91
2023/07/08 02:24:19;;;;;;;6.15;5.00;;;15.70;99.90;;;;;;4971129;28;20498;-91
2023/07/08 02:26:47;;;;;;;6.10;5.33;;;15.70;99.90;;;;;;4971895;28;20456;-92
2023/07/08 02:29:12;;;;;;;6.45;4.90;;;16.10;99.90;;;;;;4970093;28;20407;-91
2023/07/08 02:31:38;;;;;;;6.50;4.75;;;15.50;99.90;;;;;;4971661;28;20418;-92
2023/07/08 02:34:04;;;;;;;5.77;4.67;;;15.60;99.90;;;;;;4970307;28;20407;-92
2023/07/08 02:36:30;;;;;;;6.55;5.20;;;15.60;99.90;;;;;;4971560;28;20557;-92
2023/07/08 02:38:56;;;;;;;7.03;4.80;;;15.60;99.90;;;;;;4970330;28;20485;-93
2023/07/08 02:41:21;;;;;;;6.00;4.70;;;15.60;99.90;;;;;;4971489;28;20406;-92
2023/07/08 02:43:47;;;;;;;7.90;5.20;;;15.60;99.90;;;;;;4970684;28;20421;-92
2023/07/08 02:46:13;;;;;;;8.10;5.05;;;15.60;99.90;;;;;;4970849;28;20431;-91
2023/07/08 02:48:39;;;;;;;9.17;5.60;;;15.80;99.90;;;;;;4971441;28;20429;-91
2023/07/08 02:51:05;;;;;;;8.20;5.32;;;15.50;99.90;;;;;;4969991;28;20756;-92
2023/07/08 02:53:31;;;;;;;6.50;5.05;;;15.50;99.90;;;;;;4971729;28;20900;-91
2023/07/08 02:55:57;;;;;;;9.73;6.07;;;15.50;99.90;;;;;;4970176;28;20486;-92
2023/07/08 02:58:24;;;;;;;8.40;5.40;;;15.70;99.90;;;;;;4971395;28;20513;-91
2023/07/08 03:00:54;;;;;;;7.35;5.20;;;15.50;99.90;;;;;;4986485;28;20426;-92
2023/07/08 03:03:20;;;;;;;6.70;5.20;;;15.30;99.90;;;;;;4970764;28;20499;-91
2023/07/08 03:05:55;;;;;;;7.03;5.53;;;15.40;99.90;;;;;;4971098;28;20449;-91
2023/07/08 03:08:20;;;;;;;7.20;6.03;;;15.40;99.90;;;;;;4970340;28;20457;-92
2023/07/08 03:10:53;;;;;;;8.02;5.80;;;15.40;99.90;;;;;;4971577;28;20943;-91
2023/07/08 03:13:19;;;;;;;8.30;5.70;;;15.40;99.90;;;;;;4969490;28;20442;-92
2023/07/08 03:15:45;;;;;;;9.27;6.23;;;15.40;99.90;;;;;;4971505;28;20425;-89
2023/07/08 03:18:11;;;;;;;6.93;6.00;;;15.40;99.90;;;;;;4970682;28;20735;-91
2023/07/08 03:20:40;;;;;;;6.88;6.05;;;15.40;99.90;;;;;;4971107;28;20406;-91
2023/07/08 03:23:05;;;;;;;7.72;6.32;;;15.30;99.90;;;;;;4987225;28;20492;-93
2023/07/08 03:25:31;;;;;;;8.07;5.88;;;15.30;99.90;;;;;;4970158;28;20411;-91
2023/07/08 03:27:57;;;;;;;7.60;6.20;;;15.30;99.90;;;;;;4971088;28;20457;-91
2023/07/08 03:30:23;;;;;;;7.33;5.73;;;15.30;99.90;;;;;;4969507;28;20970;-92
2023/07/08 03:32:49;;;;;;;7.15;5.75;;;15.30;99.90;;;;;;4971297;28;20506;-92
2023/07/08 03:35:15;;;;;;;8.98;5.97;;;15.30;99.90;;;;;;4970317;28;20569;-92
2023/07/08 03:37:41;;;;;;;6.85;5.80;;;15.30;99.90;;;;;;4971006;28;20418;-92
2023/07/08 03:40:10;;;;;;;9.10;5.57;;;15.30;99.90;;;;;;4971457;28;20414;-91
2023/07/08 03:42:35;;;;;;;7.35;5.90;;;15.40;99.90;;;;;;4989778;28;20438;-90
2023/07/08 03:45:02;;;;;;;9.13;6.67;;;15.40;99.90;;;;;;4975025;28;20424;-91
2023/07/08 03:47:27;;;;;;;8.38;6.32;;;15.40;99.90;;;;;;4989282;28;20527;-93
2023/07/08 03:49:53;;;;;;;7.88;6.20;;;15.40;99.90;;;;;;4975400;28;20426;-91
2023/07/08 03:52:19;;;;;;;7.88;6.50;;;15.40;99.90;;;;;;4973451;28;20419;-91
2023/07/08 03:54:46;;;;;;;7.20;5.97;;;15.40;99.90;;;;;;4974353;28;20446;-91
2023/07/08 03:57:13;;;;;;;8.98;6.80;;;15.40;99.90;;;;;;4990368;28;20416;-90
2023/07/08 03:59:39;;;;;;;8.65;6.00;;;15.40;99.90;;;;;;4973704;28;20427;-92
2023/07/08 04:02:05;;;;;;;9.20;6.38;;;15.50;99.90;;;;;;4990819;28;20446;-91
2023/07/08 04:04:31;;;;;;;9.15;6.80;;;15.50;99.90;;;;;;4972988;28;20506;-92
2023/07/08 04:06:57;;;;;;;7.93;6.45;;;15.20;99.90;;;;;;4974506;28;20426;-91
2023/07/08 04:09:22;;;;;;;7.30;6.53;;;15.50;99.90;;;;;;4972782;28;20406;-91
2023/07/08 04:11:48;;;;;;;8.75;6.45;;;15.50;99.90;;;;;;4974673;28;20501;-92
2023/07/08 04:14:14;;;;;;;7.97;6.47;;;15.60;99.90;;;;;;4972853;28;20433;-90
2023/07/08 04:16:51;;;;;;;9.00;6.40;;;15.60;99.90;;;;;;4973426;28;20435;-92
2023/07/08 04:19:17;;;;;;;7.63;6.27;;;15.60;99.90;;;;;;4973738;28;20497;-91
2023/07/08 04:21:44;;;;;;;8.93;6.70;;;15.80;99.90;;;;;;4972034;28;20445;-92
2023/07/08 04:24:12;;;;;;;7.55;6.30;;;15.80;99.90;;;;;;4990211;28;20446;-91
2023/07/08 04:26:39;;;;;;;7.20;6.32;;;15.90;99.90;;;;;;4988714;28;20460;-92
2023/07/08 04:29:26;;;;;;;7.78;6.30;;;16.00;99.90;;;;;;4989729;28;20420;-94
2023/07/08 04:31:52;;;;;;;8.43;6.18;;;16.10;99.90;;;;;;4972731;28;20414;-92
2023/07/08 04:34:17;;;;;;;7.33;6.00;;;16.10;99.90;;;;;;4972813;28;20414;-92
2023/07/08 04:36:44;;;;;;;7.10;6.20;;;16.20;99.90;;;;;;4973443;28;20411;-91
2023/07/08 04:39:10;;;;;;;6.43;5.80;;;16.30;99.90;;;;;;4988387;28;20415;-92
2023/07/08 04:41:40;;;;;;;8.20;6.07;;;16.40;99.90;;;;;;4973466;28;20437;-92
2023/07/08 04:44:13;;;;;;;7.28;5.53;;;16.50;99.90;;;;;;4972147;28;20501;-92
2023/07/08 04:46:59;;;;;;;7.70;5.82;;;16.60;99.90;;;;;;4989667;28;20410;-90
2023/07/08 04:49:31;;;;;;;7.45;5.90;;;16.60;99.90;;;;;;4972582;28;20415;-92
2023/07/08 04:51:59;;;;;;;7.60;6.00;;;16.80;99.90;;;;;;4971286;28;20407;-93
2023/07/08 04:54:25;;;;;;;7.15;6.45;;;17.00;99.90;;;;;;4989776;28;20414;-93
2023/07/08 04:56:52;;;;;;;7.47;6.00;;;17.10;99.90;;;;;;4987928;28;20419;-92
2023/07/08 04:59:21;;;;;;;8.30;5.60;;;17.50;99.90;;;;;;4972951;28;20456;-92
2023/07/08 05:01:48;;;;;;;7.85;5.40;;;17.30;99.90;;;;;;4987734;28;20422;-93
2023/07/08 05:04:15;;;;;;;5.80;5.18;;;17.50;99.90;;;;;;4988675;28;20413;-92
2023/07/08 05:06:41;;;;;;;7.30;5.20;;;17.60;99.90;;;;;;4972805;28;20422;-92
2023/07/08 05:09:08;;;;;;;6.07;5.18;;;17.70;99.90;;;;;;4963816;28;20908;-92
2023/07/08 05:11:34;;;;;;;6.82;5.20;;;17.80;99.90;;;;;;4973006;28;20403;-92
2023/07/08 05:14:01;;;;;;;6.38;4.85;;;17.90;99.90;;;;;;4986917;28;20419;-93
2023/07/08 05:16:27;;;;;;;7.28;5.00;;;18.00;99.90;;;;;;4972776;28;20406;-91
2023/07/08 05:18:53;;;;;;;8.13;4.97;;;18.10;99.90;;;;;;4970796;28;20426;-92
2023/07/08 05:21:20;;;;;;;5.55;4.85;;;18.20;99.90;;;;;;4971966;28;20602;-93
2023/07/08 05:23:49;;;;;;;6.72;4.85;;;18.30;99.90;;;;;;4988258;28;20414;-93
2023/07/08 05:26:16;;;;;;;8.63;4.70;;;18.40;99.90;;;;;;4987785;28;20811;-91
2023/07/08 05:28:42;;;;;;;7.40;4.95;;;18.60;99.90;;;;;;4988670;28;20418;-92
2023/07/08 05:31:08;;;;;;;6.60;4.70;;;18.70;99.90;;;;;;4970645;28;20421;-94
2023/07/08 05:33:34;;;;;;;5.78;4.70;;;18.80;99.90;;;;;;4972582;28;20410;-93
2023/07/08 05:36:01;;;;;;;5.25;4.25;;;18.90;99.90;;;;;;4965142;28;20417;-93
2023/07/08 05:38:27;;;;;;;7.60;4.40;;;19.00;99.90;;;;;;4970837;28;20413;-94
2023/07/08 05:40:57;;;;;;;5.38;4.53;;;19.10;99.90;;;;;;4971231;28;20446;-93
2023/07/08 05:43:24;;;;;;;6.10;4.40;;;19.20;99.90;;;;;;4970445;28;20445;-94
2023/07/08 05:45:50;;;;;;;6.60;4.45;;;19.30;99.90;;;;;;4970460;28;20815;-93
2023/07/08 05:48:16;;;;;;;6.57;4.82;;;19.40;99.90;;;;;;4960990;28;20420;-92
2023/07/08 05:50:44;;;;;;;6.68;4.63;;;19.50;99.90;;;;;;4951246;28;20440;-94
2023/07/08 05:53:10;;;;;;;5.28;4.55;;;19.60;99.90;;;;;;4949556;28;20836;-90
2023/07/08 05:55:37;;;;;;;7.13;4.72;;;19.70;99.90;;;;;;4952565;28;20448;-91
2023/07/08 05:58:02;;;;;;;6.35;4.20;;;19.80;99.90;;;;;;4953829;28;20497;-95
2023/07/08 06:00:28;;;;;;;5.53;4.30;;;19.80;99.90;;;;;;4954742;28;20497;-94
2023/07/08 06:02:54;;;;;;;5.20;4.40;;;19.90;99.90;;;;;;4954810;28;20860;-94
2023/07/08 06:05:20;;;;;;;5.82;4.22;;;20.00;99.90;;;;;;4954950;28;20828;-92
2023/07/08 06:07:45;;;;;;;6.47;4.60;;;20.30;99.60;;;;;;4967721;28;20456;-87
2023/07/08 06:10:11;;;;;;;4.60;4.10;;;20.30;99.30;;;;;;4971991;28;20398;-90
2023/07/08 06:12:37;;;;;;;6.30;4.10;;;20.30;99.20;;;;;;4955386;28;20497;-93
2023/07/08 06:15:04;;;;;;;5.53;3.80;;;20.40;98.90;;;;;;4967853;28;21008;-89
2023/07/08 06:17:29;;;;;;;5.10;3.63;;;20.60;98.60;;;;;;4954807;28;20876;-89
2023/07/08 06:19:59;;;;;;;5.17;3.77;;;20.60;97.20;;;;;;4935041;28;20548;-95
2023/07/08 06:22:27;;;;;;;6.03;3.95;;;20.70;95.90;;;;;;4937610;28;20432;-92
2023/07/08 06:24:53;;;;;;;4.28;3.50;;;21.00;96.40;;;;;;4935673;28;20487;-93
2023/07/08 06:27:21;;;;;;;4.30;3.37;;;20.50;93.20;;;;;;4937404;28;20510;-93
2023/07/08 06:29:47;;;;;;;4.18;3.30;;;21.00;93.10;;;;;;4936846;28;20408;-92
2023/07/08 06:32:13;;;;;;;4.90;3.33;;;21.10;92.60;;;;;;4937315;28;20435;-94
2023/07/08 06:34:39;;;;;;;5.55;3.20;;;21.20;92.70;;;;;;4936094;28;20413;-92
2023/07/08 06:37:05;;;;;;;5.90;3.50;;;21.20;90.30;;;;;;4965641;28;20957;-92
2023/07/08 06:39:34;;;;;;;3.73;2.90;;;21.30;91.60;;;;;;4956019;28;20410;-93
2023/07/08 06:41:59;;;;;;;4.28;3.08;;;21.40;90.90;;;;;;4955162;28;20441;-89
2023/07/08 06:44:28;;;;;;;4.60;3.10;;;21.50;88.10;;;;;;4971552;28;21071;-94
2023/07/08 06:46:54;;;;;;;4.60;2.88;;;21.70;90.40;;;;;;4953918;28;20398;-91
2023/07/08 06:49:19;;;;;;;4.63;2.73;;;22.00;90.30;;;;;;4969397;28;20462;-92
2023/07/08 06:51:45;;;;;;;4.80;2.90;;;21.90;91.90;;;;;;4935618;28;20536;-88
2023/07/08 06:54:17;;;;;;;4.03;2.53;;;22.00;90.00;;;;;;4947592;29;20424;-93
2023/07/08 06:56:42;;;;;;;5.10;2.70;;;22.20;90.60;;;;;;4932888;28;20420;-93
2023/07/08 06:59:08;;;;;;;3.90;2.80;;;22.20;82.50;;;;;;4935239;28;20556;-90
2023/07/08 07:01:36;;;;;;;5.55;3.00;;;22.30;83.50;;;;;;4950201;28;20424;-92
2023/07/08 07:04:05;;;;;;;3.35;2.60;;;22.40;86.30;;;;;;4937532;28;20408;-96
2023/07/08 07:06:33;;;;;;;3.42;2.58;;;22.60;78.70;;;;;;4936219;28;20400;-93
2023/07/08 07:08:59;;;;;;;4.07;2.33;;;22.60;80.20;;;;;;4935365;28;20417;-89
2023/07/08 07:11:25;;;;;;;3.47;2.60;;;22.70;77.50;;;;;;4938135;28;20434;-91
2023/07/08 07:13:51;;;;;;;5.78;2.60;;;23.00;76.50;;;;;;4934079;28;20579;-88
2023/07/08 07:16:20;;;;;;;4.40;2.38;;;22.90;76.40;;;;;;4954634;28;20423;-90
2023/07/08 07:18:45;;;;;;;3.50;2.37;;;23.00;77.40;;;;;;4939425;28;20408;-90
2023/07/08 07:21:16;;;;;;;3.80;2.07;;;23.10;78.30;;;;;;4939987;28;21826;-90
2023/07/08 07:23:53;;;;;;;5.53;2.88;;;23.40;74.60;;;;;;4941594;28;20495;-92
2023/07/08 07:26:21;;;;;;;5.30;2.80;;;23.20;73.20;;;;;;4939809;28;20416;-92
2023/07/08 07:28:49;;;;;;;3.50;2.50;;;23.30;74.10;;;;;;4939415;28;20502;-92
2023/07/08 07:31:15;;;;;;;4.68;2.67;;;23.40;68.90;;;;;;4939137;28;20928;-92
2023/07/08 07:33:41;;;;;;;3.33;2.57;;;23.40;69.70;;;;;;4972845;28;20422;-89
2023/07/08 07:36:06;;;;;;;4.03;2.35;;;23.50;69.70;;;;;;4939344;28;20416;-91
2023/07/08 07:38:36;;;;;;;4.00;2.23;;;23.50;68.30;;;;;;4939790;28;20861;-89
2023/07/08 07:41:05;;;;;;;5.20;2.70;;;23.60;68.80;;;;;;4953280;28;20852;-94
2023/07/08 07:43:37;;;;;;;3.65;2.28;;;23.70;70.10;;;;;;4939875;28;20439;-92
2023/07/08 07:46:05;;;;;;;3.05;2.03;;;23.70;70.20;;;;;;4938297;28;20431;-88
2023/07/08 07:48:31;;;;;;;5.00;2.45;;;24.00;66.70;;;;;;4938957;28;20419;-91
2023/07/08 07:50:57;;;;;;;4.28;2.55;;;24.00;70.60;;;;;;4938864;28;20529;-88
2023/07/08 07:53:25;;;;;;;5.23;2.60;;;24.10;66.60;;;;;;4937778;28;20901;-93
2023/07/08 07:55:59;;;;;;;3.93;2.63;;;24.10;68.10;;;;;;4937498;28;20420;-91
2023/07/08 07:58:25;;;;;;;4.95;2.10;;;24.30;69.00;;;;;;4937350;28;20408;-93
2023/07/08 08:00:51;;;;;;;4.03;2.42;;;24.40;67.80;;;;;;4939757;28;20424;-91
2023/07/08 08:03:20;;;;;;;4.33;2.43;;;24.60;71.60;;;;;;4953023;28;20443;-92
2023/07/08 08:05:49;;;;;;;4.43;2.10;;;24.70;68.30;;;;;;4939666;28;20415;-92
2023/07/08 08:08:15;;;;;;;4.43;2.40;;;24.80;64.70;;;;;;4939645;28;20471;-89
2023/07/08 08:10:43;;;;;;;4.25;2.30;;;24.80;62.10;;;;;;4938421;28;20413;-90
2023/07/08 08:13:09;;;;;;;5.22;2.50;;;24.90;66.70;;;;;;4938041;28;20774;-90
2023/07/08 08:15:39;;;;;;;4.13;2.40;;;25.00;63.50;;;;;;4954862;28;20559;-94
2023/07/08 08:18:05;;;;;;;4.15;2.33;;;25.20;61.40;;;;;;4939440;28;20432;-89
2023/07/08 08:20:30;;;;;;;4.03;2.37;;;25.10;60.70;;;;;;4937902;28;20412;-89
2023/07/08 08:22:56;;;;;;;3.70;2.25;;;25.20;63.30;;;;;;4954226;28;20420;-91
2023/07/08 08:25:25;;;;;;;3.60;2.22;;;25.40;63.00;;;;;;4937786;28;20727;-90
2023/07/08 08:27:52;;;;;;;4.80;2.47;;;25.40;64.00;;;;;;4936892;28;20427;-91
2023/07/08 08:30:18;;;;;;;3.63;2.27;;;25.50;64.00;;;;;;4953618;28;20809;-88
2023/07/08 08:32:44;;;;;;;3.17;1.92;;;25.60;60.10;;;;;;4939699;28;20475;-93
2023/07/08 08:35:09;;;;;;;3.42;2.20;;;25.60;61.50;;;;;;4938263;28;20413;-92
2023/07/08 08:37:38;;;;;;;4.77;2.30;;;25.70;61.20;;;;;;4954470;28;20412;-90
2023/07/08 08:40:04;;;;;;;4.00;2.13;;;26.00;62.40;;;;;;4953361;28;20408;-93
2023/07/08 08:43:05;;;;;;;4.17;2.33;;;25.90;61.30;;;;;;4939771;28;20444;-92
2023/07/08 08:45:43;;;;;;;3.80;2.22;;;26.00;59.30;;;;;;4933700;28;20412;-94
2023/07/08 08:48:15;;;;;;;4.07;2.20;;;26.10;57.20;;;;;;4939332;28;20782;-93
2023/07/08 08:51:01;;;;;;;3.08;2.17;;;26.10;58.70;;;;;;4939531;28;20428;-90
2023/07/08 08:53:27;;;;;;;3.75;2.00;;;26.20;57.40;;;;;;4953608;28;20420;-93
2023/07/08 08:56:24;;;;;;;5.90;2.70;;;26.30;57.50;;;;;;4938106;28;20432;-91
2023/07/08 08:59:16;;;;;;;4.55;2.63;;;26.40;60.80;;;;;;4922348;28;20420;-89
2023/07/08 09:01:47;;;;;;;4.32;2.42;;;26.50;57.60;;;;;;4937637;28;20541;-93
2023/07/08 09:04:19;;;;;;;3.78;1.90;;;26.60;56.60;;;;;;4953808;28;20447;-91
2023/07/08 09:06:45;;;;;;;5.07;2.10;;;26.70;56.10;;;;;;4936882;28;20491;-91
2023/07/08 09:09:59;;;;;;;3.63;2.05;;;26.80;58.10;;;;;;4938405;28;20412;-93
2023/07/08 09:12:28;;;;;;;3.78;2.05;;;26.90;55.70;;;;;;4933262;28;20761;-94
2023/07/08 09:14:55;;;;;;;4.32;1.98;;;27.10;56.10;;;;;;4953636;28;20423;-91
2023/07/08 09:17:34;;;;;;;3.83;1.92;;;27.10;56.00;;;;;;4937278;28;20404;-92
2023/07/08 09:20:29;;;;;;;3.83;1.75;;;27.20;58.00;;;;;;4937168;28;20416;-94
2023/07/08 09:23:13;;;;;;;2.50;1.70;;;27.40;55.10;;;;;;4939955;28;20979;-89
2023/07/08 09:25:57;;;;;;;4.38;2.10;;;27.50;52.70;;;;;;4954429;28;20503;-93
2023/07/08 09:28:39;;;;;;;3.70;2.17;;;27.40;54.00;;;;;;4953181;28;20420;-90
2023/07/08 09:31:07;;;;;;;4.20;2.10;;;27.50;54.60;;;;;;4937127;28;20422;-93
2023/07/08 09:33:40;;;;;;;5.05;1.88;;;27.60;54.50;;;;;;4952487;28;20503;-89
2023/07/08 09:36:19;;;;;;;5.57;2.13;;;27.70;55.20;;;;;;4969716;28;20934;-93
2023/07/08 09:38:49;;;;;;;4.00;2.20;;;27.90;53.90;;;;;;4936137;28;20499;-90
2023/07/08 09:41:31;;;;;;;3.92;1.92;;;28.00;55.70;;;;;;4938206;28;20823;-92
2023/07/08 09:44:12;;;;;;;2.90;2.00;;;28.10;54.60;;;;;;4936714;28;20447;-93
2023/07/08 09:46:38;;;;;;;2.97;2.00;;;28.30;52.80;;;;;;4935963;28;20507;-93
2023/07/08 09:49:18;;;;;;;4.85;1.70;;;28.30;52.40;;;;;;4952620;28;20503;-91
2023/07/08 09:51:50;;;;;;;5.82;2.20;;;28.50;52.40;;;;;;4951319;28;20412;-94
2023/07/08 09:54:17;;;;;;;4.40;1.80;;;28.70;52.10;;;;;;4953073;28;20440;-88
2023/07/08 09:56:49;;;;;;;4.60;2.05;;;28.70;50.90;;;;;;4951127;28;20487;-93
2023/07/08 09:59:15;;;;;;;2.95;2.10;;;28.80;51.40;;;;;;4952330;28;20408;-92
2023/07/08 10:01:42;;;;;;;3.28;1.83;;;29.00;50.70;;;;;;4935405;28;20534;-89
2023/07/08 10:04:08;;;;;;;4.05;2.28;;;29.10;51.40;;;;;;4936389;28;20455;-93
2023/07/08 10:06:35;;;;;;;5.70;2.25;;;29.30;49.90;;;;;;4935404;28;20424;-91
2023/07/08 10:09:18;;;;;;;6.05;2.60;;;29.40;51.00;;;;;;4950806;28;20427;-90
2023/07/08 10:12:01;;;;;;;6.53;3.58;;;29.50;50.90;;;;;;4937243;28;20423;-92
2023/07/08 10:14:45;;;;;;;3.93;2.73;;;29.80;52.10;;;;;;4935064;28;20822;-90
2023/07/08 10:17:15;;;;;;;3.95;2.17;;;30.20;49.70;;;;;;4952577;28;20559;-87
2023/07/08 10:19:41;;;;;;;4.37;2.20;;;30.20;49.20;;;;;;4952132;28;20921;-90
2023/07/08 10:22:17;;;;;;;3.67;2.50;;;30.40;48.90;;;;;;4950990;28;20467;-92
2023/07/08 10:25:16;;;;;;;3.88;2.40;;;30.70;48.90;;;;;;4951211;28;20416;-91
2023/07/08 10:28:18;;;;;;;4.85;2.00;;;30.80;48.70;;;;;;4913243;28;20970;-92
2023/07/08 10:30:53;;;;;;;3.40;2.00;;;31.10;48.40;;;;;;4950923;28;20508;-90
2023/07/08 10:33:54;;;;;;;3.97;2.25;;;31.30;47.40;;;;;;4951132;28;20515;-91
2023/07/08 10:36:35;;;;;;;3.65;2.25;;;31.50;46.20;;;;;;4934055;28;20897;-91
2023/07/08 10:39:18;;;;;;;3.22;2.28;;;31.80;46.90;;;;;;4935320;28;20800;-92
2023/07/08 10:41:54;;;;;;;4.22;2.40;;;32.00;46.80;;;;;;4936058;28;20432;-94
2023/07/08 10:44:54;;;;;;;4.10;2.47;;;32.10;44.90;;;;;;4936570;28;20420;-94
2023/07/08 10:47:38;;;;;;;3.53;2.10;;;32.40;46.00;;;;;;4970386;28;20913;-90
2023/07/08 10:50:07;;;;;;;2.70;2.50;;;32.60;45.00;;;;;;4936105;28;20415;-93
2023/07/08 10:52:39;;;;;;;2.85;2.10;;;33.10;46.60;;;;;;4958751;28;20416;-95
2023/07/08 10:55:39;;;;;;;3.08;2.20;;;33.30;43.50;;;;;;4941282;28;20920;-91
2023/07/08 10:58:22;;;;;;;4.10;1.85;;;33.70;41.30;;;;;;4974741;28;20498;-94
2023/07/08 11:01:12;;;;;;;3.17;1.92;;;34.00;42.10;;;;;;4942470;28;20675;-88
2023/07/08 11:03:54;;;;;;;4.45;2.25;;;34.10;42.10;;;;;;4940043;28;20436;-92
2023/07/08 11:06:47;;;;;;;4.93;2.08;;;34.40;40.90;;;;;;4957118;28;20419;-91
2023/07/08 11:09:26;;;;;;;3.88;2.30;;;34.40;39.60;;;;;;4975218;28;20423;-90
2023/07/08 11:12:01;;;;;;;3.23;1.93;;;34.60;39.50;;;;;;4957152;28;20424;-94
2023/07/08 11:14:49;;;;;;;4.43;1.95;;;34.80;39.30;;;;;;4943352;28;20487;-91
2023/07/08 11:17:24;;;;;;;2.60;2.10;;;35.10;40.30;;;;;;4958690;28;20828;-90
2023/07/08 11:20:16;;;;;;;4.72;1.92;;;35.30;37.90;;;;;;4958050;28;20419;-91
2023/07/08 11:22:54;;;;;;;2.70;2.13;;;35.40;39.60;;;;;;4966994;28;20501;-94
2023/07/08 11:25:25;;;;;;;3.88;1.95;;;35.40;38.40;;;;;;4941138;28;20412;-92
2023/07/08 11:28:02;;;;;;;2.75;2.20;;;35.70;37.60;;;;;;4942099;28;20407;-94
2023/07/08 11:30:30;;;;;;;3.30;2.13;;;35.50;37.00;;;;;;4940885;28;20476;-90
2023/07/08 11:33:08;;;;;;;3.30;1.80;;;35.30;37.70;;;;;;4959014;28;20476;-92
2023/07/08 11:35:40;;;;;;;3.70;2.20;;;35.50;39.70;;;;;;4941393;28;20862;-92
2023/07/08 11:38:10;;;;;;;3.20;1.92;;;35.70;38.30;;;;;;4941249;28;20431;-90
2023/07/08 11:40:54;;;;;;;4.32;2.95;;;35.90;38.80;;;;;;4958943;28;20860;-93
2023/07/08 11:43:21;;;;;;;3.97;2.30;;;36.10;35.50;;;;;;4940351;28;20490;-94
2023/07/08 11:45:50;;;;;;;2.65;2.15;;;36.00;36.10;;;;;;4941103;28;20409;-93
2023/07/08 11:48:28;;;;;;;3.15;2.00;;;36.00;36.90;;;;;;4972780;28;20416;-91
2023/07/08 11:50:57;;;;;;;2.63;1.95;;;36.10;37.20;;;;;;4974438;28;20404;-93
2023/07/08 11:53:29;;;;;;;3.63;2.22;;;36.40;39.00;;;;;;4956859;28;20408;-88
2023/07/08 11:56:07;;;;;;;4.37;2.40;;;36.60;35.10;;;;;;4957522;28;20420;-92
2023/07/08 11:58:51;;;;;;;3.77;2.40;;;36.70;36.90;;;;;;4942437;28;20422;-94
2023/07/08 12:01:37;;;;;;;3.03;2.30;;;36.80;34.80;;;;;;4941122;28;21056;-92
2023/07/08 12:04:09;;;;;;;2.90;2.13;;;36.80;35.70;;;;;;4956459;28;20404;-92
2023/07/08 12:06:35;;;;;;;3.78;2.47;;;36.80;34.90;;;;;;4939242;28;20932;-92
2023/07/08 12:09:24;;;;;;;5.75;3.22;;;36.70;33.50;;;;;;4938401;28;20416;-90
2023/07/08 12:12:01;;;;;;;4.28;2.30;;;36.70;34.70;;;;;;4939462;28;20424;-90
2023/07/08 12:14:28;;;;;;;3.42;2.22;;;36.80;33.90;;;;;;4954450;28;20786;-92
2023/07/08 12:16:55;;;;;;;3.47;2.10;;;36.90;36.20;;;;;;4938280;28;21031;-91
2023/07/08 12:19:25;;;;;;;4.10;2.33;;;37.20;36.00;;;;;;4937539;28;20412;-93
2023/07/08 12:21:54;;;;;;;4.07;2.40;;;37.30;34.00;;;;;;4954941;28;20447;-93
2023/07/08 12:24:26;;;;;;;3.50;2.33;;;37.30;32.50;;;;;;4937916;28;20444;-90
2023/07/08 12:26:52;;;;;;;3.42;2.53;;;37.30;33.30;;;;;;4973313;28;20801;-89
2023/07/08 12:29:17;;;;;;;2.92;2.30;;;37.20;32.30;;;;;;4954481;28;20500;-89
2023/07/08 12:31:43;;;;;;;4.10;2.20;;;37.30;34.30;;;;;;4938728;28;20416;-92
2023/07/08 12:34:14;;;;;;;3.45;2.42;;;37.30;33.40;;;;;;4970680;28;20414;-93
2023/07/08 12:36:42;;;;;;;3.27;2.40;;;37.20;32.60;;;;;;4937487;28;20605;-89
2023/07/08 12:39:14;;;;;;;3.45;2.20;;;37.20;31.80;;;;;;4945799;28;20416;-93
2023/07/08 12:41:42;;;;;;;4.07;2.20;;;37.30;32.90;;;;;;4936041;28;20623;-89
2023/07/08 12:44:23;;;;;;;3.50;2.42;;;37.40;32.60;;;;;;4929714;28;20408;-90
2023/07/08 12:46:52;;;;;;;3.90;2.28;;;37.40;34.00;;;;;;4937158;28;20474;-90
2023/07/08 12:49:19;;;;;;;3.40;2.47;;;37.50;32.90;;;;;;4937693;28;20420;-89
2023/07/08 12:51:46;;;;;;;4.38;2.30;;;37.50;33.50;;;;;;4937336;28;20416;-90
2023/07/08 12:54:13;;;;;;;4.15;2.10;;;37.70;32.70;;;;;;4937867;28;20408;-93
2023/07/08 12:56:42;;;;;;;6.35;2.60;;;37.90;32.40;;;;;;4971072;28;20434;-92
2023/07/08 12:59:12;;;;;;;3.63;2.38;;;38.00;34.90;;;;;;4953419;28;20412;-94
2023/07/08 13:01:38;;;;;;;2.83;2.15;;;38.30;33.50;;;;;;4954076;28;20424;-92
2023/07/08 13:04:11;;;;;;;3.80;2.17;;;38.40;32.30;;;;;;4952287;28;20832;-93
2023/07/08 13:06:42;;;;;;;2.77;2.10;;;38.60;34.50;;;;;;4971720;28;20420;-93